Latest Weather Observations for Lake Grace

IDW60801

Issued at 5:02 pm WST Friday 12 February 2016 (issued every 30 minutes, with the page automatically refreshed every 10 minutes)

About weather observations | Map of weather stations | Latest weather observations for WA | Other Formats
Station Details ID: 010911 Name: LAKE GRACE Lat: -33.10 Lon: 118.46 Height: 286.0 m
Data from the previous 72 hours. | See also: Recent months at Lake Grace
Date/Time
WST
Temp
°C
App
Temp
°C
Dew
Point
Rel
Hum
%
Delta-T
°C
Wind Press
QNH
hPa
Press
MSL
hPa
Rain
since 9 am
mm
Dir
 
Spd
km/h
Gust
km/h
Spd
kts
Gust
kts
12/05:00pm 31.2 28.1 11.6 30 11.6 S 19 26 10 14 1015.4 1014.1 0.0
12/04:30pm 31.3 28.1 11.1 29 11.8 SSW 19 30 10 16 1015.4 1014.1 0.0
12/04:00pm 32.0 28.5 10.1 26 12.7 SSW 19 30 10 16 1015.3 1014.0 0.0
12/03:30pm 32.4 29.3 10.4 26 12.8 SSW 17 32 9 17 1015.3 1014.0 0.0
12/03:00pm 32.1 28.4 9.6 25 12.9 SSW 19 30 10 16 1015.3 1014.0 0.0
12/02:30pm 32.7 29.4 9.5 24 13.3 SSW 17 32 9 17 1015.4 1014.1 0.0
12/02:00pm 32.3 28.9 9.2 24 13.2 S 17 30 9 16 1015.6 1014.3 0.0
12/01:30pm 31.1 28.3 9.9 27 12.2 S 15 28 8 15 1015.9 1014.6 0.0
12/01:00pm 30.6 27.3 9.5 27 12.0 S 17 24 9 13 1016.3 1015.0 0.0
12/12:30pm 29.8 27.7 11.3 32 10.8 S 13 26 7 14 1016.5 1015.2 0.0
12/12:00pm 29.5 28.1 13.3 37 9.7 S 13 24 7 13 1016.7 1015.4 0.0
12/11:30am 27.9 25.6 11.9 37 9.4 SSW 15 22 8 12 1017.1 1015.7 0.0
12/11:00am 27.3 25.6 12.5 40 8.7 SSW 13 20 7 11 1017.4 1016.0 0.0
12/10:30am 26.2 24.8 13.3 45 7.7 S 13 19 7 10 1017.6 1016.2 0.0
12/10:00am 25.4 24.3 14.2 50 6.7 SSW 13 22 7 12 1018.0 1016.7 0.0
12/09:30am 24.4 23.2 13.9 52 6.2 S 13 22 7 12 1017.8 1016.4 0.0
12/09:00am 22.6 21.5 14.2 59 5.0 SSE 13 20 7 11 1017.7 1016.3 0.0
12/08:30am 21.8 21.3 14.9 65 4.1 SSE 11 17 6 9 1017.6 1016.2 0.0
12/08:00am 20.6 19.5 15.2 71 3.2 SSE 15 20 8 11 1017.8 1016.4 0.0
12/07:30am 19.4 18.1 14.9 75 2.7 S 15 22 8 12 1017.8 1016.4 0.0
12/07:00am 19.4 18.7 15.5 78 2.3 SSE 13 20 7 11 1017.8 1016.4 0.0
12/06:30am 18.9 17.4 15.4 80 2.1 SSE 17 22 9 12 1017.8 1016.4 0.0
12/06:00am 18.9 18.3 15.6 81 2.0 S 13 22 7 12 1017.2 1015.8 0.0
12/05:30am 19.0 18.1 15.9 82 1.9 SSE 15 24 8 13 1016.5 1015.2 0.0
12/05:00am 19.1 18.3 16.1 83 1.8 SSE 15 20 8 11 1016.4 1015.1 0.0
12/04:30am 18.6 17.8 16.0 85 1.6 SSE 15 24 8 13 1015.9 1014.6 0.0
12/04:00am 18.8 18.1 16.4 86 1.5 S 15 22 8 12 1015.6 1014.3 0.0
12/03:30am 18.8 18.5 16.4 86 1.5 S 13 17 7 9 1015.5 1014.2 0.0
12/03:00am 19.0 18.4 16.6 86 1.5 SSE 15 24 8 13 1015.3 1014.0 0.0
12/02:30am 18.7 18.3 16.3 86 1.5 SSE 13 20 7 11 1014.8 1013.5 0.0
12/02:00am 18.9 18.1 16.1 84 1.7 SSE 15 20 8 11 1014.7 1013.3 0.0
12/01:30am 19.6 18.4 16.1 80 2.1 SSE 17 24 9 13 1014.5 1013.1 0.0
12/01:00am 20.5 19.7 16.1 76 2.7 SSE 15 24 8 13 1014.6 1013.2 0.0
12/12:30am 21.2 21.2 16.2 73 3.0 SSE 11 19 6 10 1014.6 1013.2 0.0
12/12:00am 21.8 21.4 16.1 70 3.5 SSE 13 19 7 10 1014.6 1013.2 0.0
 
Date/Time
WST
Temp
°C
App
Temp
°C
Dew
Point
Rel
Hum
%
Delta-T
°C
Wind Press
QNH
hPa
Press
MSL
hPa
Rain
since 9 am
mm
Dir
 
Spd
km/h
Gust
km/h
Spd
kts
Gust
kts
11/11:30pm 22.5 22.6 16.5 69 3.7 S 11 19 6 10 1014.5 1013.1 0.0
11/11:00pm 23.4 23.3 16.9 67 4.0 SSE 13 19 7 10 1014.5 1013.1 0.0
11/10:30pm 24.2 24.2 17.2 65 4.4 SE 13 17 7 9 1014.4 1013.0 0.0
11/10:00pm 25.3 25.2 17.0 60 5.2 SSE 13 19 7 10 1014.4 1013.0 0.0
11/09:30pm 26.6 26.6 17.1 56 6.0 SE 13 20 7 11 1013.9 1012.5 0.0
11/09:00pm 27.9 27.0 16.8 50 7.0 SE 17 26 9 14 1013.6 1012.2 0.0
11/08:30pm 29.1 28.3 17.0 48 7.7 SSE 17 24 9 13 1013.0 1011.7 0.0
11/08:00pm 30.0 29.6 17.1 46 8.2 SSE 15 24 8 13 1012.7 1011.4 0.0
11/07:30pm 31.0 30.3 17.3 43 8.8 SSE 17 26 9 14 1012.3 1011.0 0.0
11/07:00pm 31.9 30.7 17.0 41 9.6 SE 19 28 10 15 1011.7 1010.4 0.0
11/06:30pm 33.0 31.1 16.8 38 10.4 SE 22 33 12 18 1011.2 1009.8 0.0
11/06:00pm 35.3 33.9 16.6 33 12.1 SSE 19 35 10 19 1010.6 1009.2 0.0
11/05:49pm 36.4 34.6 15.5 29 13.3 SSW 19 41 10 22 1010.7 1009.3 0.0
11/05:30pm 41.4 35.3 0.5 8 21.4 WNW 22 35 12 19 1010.1 1008.7 0.0
11/05:00pm 42.0 35.6 1.0 8 21.7 NW 24 35 13 19 1009.9 1008.5 0.0
11/04:30pm 42.2 36.3 -0.7 7 22.2 WNW 20 32 11 17 1010.0 1008.6 0.0
11/04:00pm 42.5 36.3 -0.5 7 22.3 WNW 22 35 12 19 1010.1 1008.7 0.0
11/03:30pm 42.6 36.4 -0.4 7 22.4 WNW 22 39 12 21 1010.3 1008.9 0.0
11/03:00pm 42.8 36.2 -0.3 7 22.5 WNW 24 39 13 21 1010.6 1009.2 0.0
11/02:30pm 42.8 35.8 -0.3 7 22.5 NNW 26 41 14 22 1010.7 1009.3 0.0
11/02:00pm 42.2 35.2 -0.7 7 22.2 NW 26 44 14 24 1011.2 1009.8 0.0
11/01:30pm 42.6 35.9 1.4 8 22.0 NW 26 44 14 24 1011.6 1010.2 0.0
11/01:00pm 42.0 34.5 1.0 8 21.7 NW 30 41 16 22 1011.9 1010.6 0.0
11/12:30pm 41.6 34.8 0.7 8 21.5 NNW 26 43 14 23 1012.2 1010.9 0.0
11/12:00pm 40.7 34.9 4.5 11 20.0 NW 24 37 13 20 1012.8 1011.5 0.0
11/11:30am 39.3 32.6 3.4 11 19.4 NNW 28 41 15 22 1013.2 1011.8 0.0
11/11:00am 37.9 31.2 5.8 14 17.9 NNW 30 39 16 21 1013.6 1012.2 0.0
11/10:30am 36.3 31.0 9.8 20 15.5 NNW 28 39 15 21 1014.1 1012.7 0.0
11/10:00am 33.9 29.4 9.9 23 13.9 NNW 24 37 13 20 1014.5 1013.1 0.0
11/09:30am 30.9 29.2 13.7 35 10.5 NNW 15 24 8 13 1014.7 1013.3 0.0
11/09:00am 27.2 26.6 14.6 46 7.7 NNW 11 17 6 9 1014.9 1013.6 0.0
11/08:30am 25.5 24.7 15.2 53 6.3 N 13 20 7 11 1015.0 1013.7 0.0
11/08:00am 23.1 23.1 16.2 65 4.2 N 11 19 6 10 1015.0 1013.7 0.0
11/07:30am 21.5 22.1 16.7 74 3.0 ENE 9 11 5 6 1015.1 1013.8 0.0
11/07:00am 19.8 20.5 17.0 84 1.7 ESE 9 13 5 7 1015.2 1013.9 0.0
11/06:30am 17.9 17.9 16.2 90 1.0 SE 11 15 6 8 1015.1 1013.8 0.0
11/06:00am 17.2 17.0 15.7 91 0.9 SE 11 17 6 9 1015.3 1014.0 0.0
11/05:30am 17.2 17.9 15.5 90 1.0 SSE 6 9 3 5 1015.1 1013.8 0.0
11/05:00am 17.4 17.5 15.6 89 1.1 E 9 15 5 8 1014.6 1013.2 0.0
11/04:30am 17.3 17.7 15.3 88 1.2 SE 7 13 4 7 1014.5 1013.1 0.0
11/04:00am 17.5 17.5 15.3 87 1.3 ESE 9 11 5 6 1014.6 1013.2 0.0
11/03:30am 17.7 18.7 15.3 86 1.4 SE 4 7 2 4 1014.5 1013.1 0.0
11/03:00am 17.9 18.4 15.5 86 1.4 SE 7 9 4 5 1014.6 1013.2 0.0
11/02:30am 18.1 17.8 15.5 85 1.5 SE 11 15 6 8 1014.7 1013.3 0.0
11/02:00am 18.2 17.9 15.5 84 1.6 SSE 11 17 6 9 1015.2 1013.9 0.0
11/01:30am 18.4 17.7 15.5 83 1.7 SE 13 20 7 11 1015.2 1013.9 0.0
11/01:00am 18.6 18.0 15.7 83 1.7 SE 13 17 7 9 1015.5 1014.2 0.0
11/12:30am 18.8 18.2 15.7 82 1.9 SE 13 19 7 10 1015.8 1014.5 0.0
11/12:00am 19.0 18.1 15.9 82 1.9 SE 15 22 8 12 1016.1 1014.8 0.0
 
Date/Time
WST
Temp
°C
App
Temp
°C
Dew
Point
Rel
Hum
%
Delta-T
°C
Wind Press
QNH
hPa
Press
MSL
hPa
Rain
since 9 am
mm
Dir
 
Spd
km/h
Gust
km/h
Spd
kts
Gust
kts
10/11:30pm 19.2 18.4 16.1 82 1.9 SE 15 22 8 12 1016.4 1015.1 0.0
10/11:00pm 19.7 18.9 16.0 79 2.2 SSE 15 22 8 12 1016.5 1015.2 0.0
10/10:30pm 20.3 19.1 16.1 77 2.5 SSE 17 28 9 15 1016.7 1015.4 0.0
10/10:00pm 21.1 19.9 16.1 73 3.0 SSE 17 26 9 14 1016.7 1015.4 0.0
10/09:30pm 22.2 20.7 16.2 69 3.7 SE 19 28 10 15 1016.6 1015.3 0.0
10/09:00pm 23.1 21.5 16.4 66 4.1 SE 20 32 11 17 1016.3 1015.0 0.0
10/08:30pm 24.3 21.6 16.6 62 4.8 SE 26 35 14 19 1015.8 1014.5 0.0
10/08:00pm 26.0 24.0 16.5 55 5.9 SE 22 37 12 20 1015.4 1014.1 0.0
10/07:30pm 27.9 25.9 16.5 50 7.2 SE 22 35 12 19 1014.9 1013.6 0.0
10/07:00pm 30.1 27.7 16.5 44 8.6 SE 24 35 13 19 1014.3 1012.9 0.0
10/06:30pm 32.8 29.4 15.8 36 10.7 SE 28 41 15 22 1013.7 1012.3 0.0
10/06:00pm 34.9 31.3 15.3 31 12.4 SE 28 39 15 21 1013.0 1011.7 0.0
10/05:30pm 36.3 32.4 15.4 28 13.3 SE 30 44 16 24 1012.8 1011.5 0.0
10/05:00pm 39.2 37.4 12.1 20 16.6 S 13 30 7 16 1012.5 1011.2 0.0
10/04:30pm 40.3 37.6 2.8 10 20.2 NNE 6 15 3 8 1012.4 1011.1 0.0
10/04:00pm 40.5 37.9 3.0 10 20.3 NW 6 11 3 6 1012.6 1011.3 0.0
10/03:30pm 39.7 36.4 2.4 10 19.9 E 9 11 5 6 1012.8 1011.5 0.0
10/03:00pm 40.5 37.3 3.0 10 20.3 NNW 9 20 5 11 1013.3 1011.9 0.0
10/02:30pm 40.4 37.4 4.3 11 19.9 N 9 20 5 11 1013.6 1012.2 0.0
10/02:00pm 38.7 36.6 8.4 16 17.6 S 9 17 5 9 1013.9 1012.5 0.0
10/01:30pm 38.3 35.8 8.1 16 17.4 SSW 11 19 6 10 1014.3 1012.9 0.0
10/01:00pm 37.8 36.0 9.4 18 16.7 NNW 9 15 5 8 1014.7 1013.3 0.0
10/12:30pm 36.2 35.8 12.4 24 14.5 NNE 6 9 3 5 1015.2 1013.9 0.0
10/12:00pm 35.9 34.5 10.9 22 14.9 E 9 17 5 9 1015.5 1014.2 0.0
10/11:30am 34.8 33.1 11.2 24 14.0 E 11 19 6 10 1015.8 1014.5 0.0
10/11:00am 32.8 31.1 12.4 29 12.3 ENE 13 22 7 12 1016.2 1014.9 0.0
10/10:30am 31.2 29.8 13.5 34 10.8 ENE 13 20 7 11 1016.5 1015.2 0.0
10/10:00am 29.6 28.4 15.0 41 9.0 E 15 24 8 13 1017.0 1015.6 0.0
10/09:30am 27.3 26.0 15.7 49 7.2 E 17 26 9 14 1017.3 1015.9 0.0
10/09:00am 24.8 23.6 16.0 58 5.4 ESE 17 24 9 13 1017.7 1016.3 0.0
10/08:30am 23.0 21.4 16.1 65 4.2 SE 19 26 10 14 1017.8 1016.4 0.0
10/08:00am 21.4 20.1 15.9 71 3.3 SE 17 24 9 13 1017.9 1016.6 0.0
10/07:30am 20.2 19.0 16.0 77 2.5 SE 17 24 9 13 1017.9 1016.6 0.0
10/07:00am 18.9 18.9 16.3 85 1.6 SSE 11 20 6 11 1018.0 1016.7 0.0
10/06:30am 17.5 16.8 15.5 88 1.2 SSE 13 20 7 11 1017.4 1016.0 0.0
10/06:00am 17.1 16.4 15.3 89 1.1 ESE 13 22 7 12 1017.0 1015.6 0.0
10/05:30am 17.4 17.5 15.4 88 1.2 S 9 17 5 9 1017.3 1015.9 0.0
10/05:00am 17.7 17.3 15.3 86 1.4 SSE 11 19 6 10 1017.1 1015.7 0.0
10/04:30am 17.9 16.8 15.3 85 1.5 SE 15 22 8 12 1016.5 1015.2 0.0
10/04:00am 18.2 17.5 15.3 83 1.7 SE 13 19 7 10 1016.5 1015.2 0.0
10/03:30am 18.5 17.8 15.4 82 1.8 SE 13 17 7 9 1016.4 1015.1 0.0
10/03:00am 18.5 18.3 15.6 83 1.7 SSE 11 17 6 9 1016.3 1015.0 0.0
10/02:30am 18.6 18.4 15.7 83 1.7 S 11 15 6 8 1016.3 1015.0 0.0
10/02:00am 19.0 17.7 15.9 82 1.9 SSE 17 26 9 14 1016.3 1015.0 0.0
10/01:30am 19.5 18.6 15.8 79 2.2 SSE 15 20 8 11 1016.5 1015.2 0.0
10/01:00am 20.2 18.7 15.4 74 2.9 SSE 17 26 9 14 1016.7 1015.4 0.0
10/12:30am 21.0 19.9 14.4 66 3.9 SSE 13 20 7 11 1017.0 1015.6 0.0
10/12:00am 21.9 20.6 13.8 60 4.8 S 13 19 7 10 1017.1 1015.7 0.0
 
Date/Time
WST
Temp
°C
App
Temp
°C
Dew
Point
Rel
Hum
%
Delta-T
°C
Wind Press
QNH
hPa
Press
MSL
hPa
Rain
since 9 am
mm
Dir
 
Spd
km/h
Gust
km/h
Spd
kts
Gust
kts
09/11:30pm 23.1 21.0 11.2 47 6.7 S 13 17 7 9 1016.7 1015.4 0.0
09/11:00pm 24.0 21.5 9.6 40 7.9 SSE 13 19 7 10 1016.7 1015.4 0.0
09/10:30pm 25.0 21.1 9.3 37 8.7 SE 20 33 11 18 1016.5 1015.2 0.0
09/10:00pm 25.8 21.8 9.2 35 9.2 SE 20 28 11 15 1016.7 1015.4 0.0
09/09:30pm 26.2 22.8 9.1 34 9.5 SSE 17 26 9 14 1016.9 1015.5 0.0
09/09:00pm 26.9 23.5 9.3 33 9.8 SSE 17 24 9 13 1016.7 1015.4 0.0
09/08:30pm 28.3 23.4 8.6 29 10.9 SE 24 37 13 20 1016.3 1015.0 0.0
09/08:00pm 29.3 24.3 9.4 29 11.2 SE 26 41 14 22 1015.9 1014.6 0.0
09/07:30pm 31.9 27.6 9.4 25 12.9 SE 22 35 12 19 1015.1 1013.8 0.0
09/07:00pm 34.2 29.9 10.7 24 13.8 SSE 24 41 13 22 1014.5 1013.1 0.0
09/06:30pm 38.2 36.2 -0.2 9 19.5 CALM 0 0 0 0 1013.9 1012.5 0.0
09/06:00pm 38.8 35.3 -1.3 8 20.1 NNW 7 13 4 7 1013.9 1012.5 0.0
09/05:30pm 39.0 35.7 0.4 9 19.9 S 7 11 4 6 1013.9 1012.5 0.0

Other Formats:

Comma delimited format used in spreadsheet applications
http://www.bom.gov.au/fwo/IDW60801/IDW60801.95637.axf

JavaScript Object Notation format (JSON) in row-major order
http://www.bom.gov.au/fwo/IDW60801/IDW60801.95637.json